Time;durP1;ratioP1;P1;durP2;ratioP2;P2;SDS_P1;SDS_P2;PMS_P1;PMS_P2;Temp;Humidity;BMP_temperature;BMP_pressure;BME280_temperature;BME280_humidity;BME280_pressure;Samples;Min_cycle;Max_cycle;Signal;HPM_P1;HPM_P2
2021/08/12 00:00:24;;;;;;;;;;;16.00;99.90;;;14.67;93.41;101618.44;3520391;39;102382;-40
2021/08/12 00:02:51;;;;;;;;;;;16.00;99.90;;;14.63;93.48;101618.03;3520758;39;102174;-40
2021/08/12 00:05:19;;;;;;;;;;;16.00;99.90;;;14.59;93.29;101611.31;3520516;40;102370;-40
2021/08/12 00:07:46;;;;;;;;;;;15.90;99.90;;;14.58;93.48;101617.00;3520610;39;102336;-42
2021/08/12 00:10:14;;;;;;;;;;;15.90;99.90;;;14.55;93.36;101609.22;3520410;40;102266;-40
2021/08/12 00:12:41;;;;;;;;;;;15.90;99.90;;;14.50;93.66;101599.72;3520647;40;102379;-40
2021/08/12 00:15:08;;;;;;;;;;;15.90;99.90;;;14.48;93.66;101601.84;3520722;39;102727;-40
2021/08/12 00:17:36;;;;;;;;;;;15.80;99.90;;;14.46;93.65;101592.19;3520734;39;102189;-40
2021/08/12 00:20:04;;;;;;;;;;;15.80;99.90;;;14.44;93.30;101603.38;3520292;39;102451;-40
2021/08/12 00:22:31;;;;;;;;;;;15.80;99.90;;;14.44;93.45;101591.53;3520679;39;102234;-41
2021/08/12 00:24:58;;;;;;;;;;;15.80;99.90;;;14.45;93.69;101606.94;3520412;40;102405;-40
2021/08/12 00:27:26;;;;;;;;;;;15.80;99.90;;;14.44;94.11;101605.25;3520620;40;102355;-40
2021/08/12 00:29:53;;;;;;;;;;;15.80;99.90;;;14.39;94.14;101614.16;3520315;39;102407;-40
2021/08/12 00:32:20;;;;;;;;;;;15.70;99.90;;;14.35;93.93;101607.44;3520613;39;103685;-40
2021/08/12 00:34:48;;;;;;;;;;;15.70;99.90;;;14.29;93.73;101611.88;3519183;40;102295;-40
2021/08/12 00:37:15;;;;;;;;;;;15.60;99.90;;;14.21;93.69;101603.91;3520456;39;102792;-40
2021/08/12 00:39:44;;;;;;;;;;;15.60;99.90;;;14.19;93.66;101615.09;3519210;40;104049;-40
2021/08/12 00:42:14;;;;;;;;;;;15.60;99.90;;;14.15;93.81;101611.09;3519459;40;102410;-40
2021/08/12 00:44:51;;;;;;;;;;;15.50;99.90;;;14.10;93.92;101619.16;3519602;40;104114;-40
2021/08/12 00:47:18;;;;;;;;;;;15.50;99.90;;;14.07;94.05;101611.34;3519505;40;102234;-40
2021/08/12 00:49:46;;;;;;;;;;;15.40;99.90;;;14.05;94.15;101616.19;3519279;40;103279;-42
2021/08/12 00:52:14;;;;;;;;;;;15.40;99.90;;;13.95;94.22;101606.53;3520777;40;102293;-40
2021/08/12 00:54:45;;;;;;;;;;;15.40;99.90;;;13.98;93.92;101609.88;3519317;40;103057;-40
2021/08/12 00:57:13;;;;;;;;;;;15.30;99.90;;;13.95;93.51;101606.53;3519663;40;102654;-40
2021/08/12 00:59:41;;;;;;;;;;;15.30;99.90;;;13.93;93.83;101603.16;3520154;39;103985;-40
2021/08/12 01:02:12;;;;;;;;;;;15.30;99.90;;;13.93;94.33;101610.56;3520606;39;102732;-40
2021/08/12 01:04:48;;;;;;;;;;;15.30;99.90;;;13.93;94.50;101605.06;3520092;39;104908;-40
2021/08/12 01:07:40;;;;;;;;;;;15.30;99.90;;;13.93;94.86;101607.81;3520639;39;102305;-41
2021/08/12 01:10:28;;;;;;;;;;;15.30;99.90;;;13.93;94.71;101608.66;3520297;39;103933;-42
2021/08/12 01:12:57;;;;;;;;;;;15.30;99.90;;;13.91;94.80;101602.53;3519346;40;102518;-41
2021/08/12 01:15:32;;;;;;;;;;;15.30;99.90;;;13.90;95.18;101605.47;3519176;40;102229;-40
2021/08/12 01:18:09;;;;;;;;;;;15.30;99.90;;;13.90;95.34;101595.38;3520474;39;103762;-40
2021/08/12 01:20:39;;;;;;;;;;;15.20;99.90;;;13.95;95.74;101602.94;3520234;39;103918;-40
2021/08/12 01:23:12;;;;;;;;;;;15.30;99.90;;;14.04;96.02;101617.25;3519273;40;102784;-40
2021/08/12 01:25:44;;;;;;;;;;;15.30;99.90;;;14.02;95.77;101611.13;3519156;40;103139;-40
2021/08/12 01:28:17;;;;;;;;;;;15.40;99.90;;;13.98;95.51;101612.63;3519249;40;102799;-40
2021/08/12 01:30:53;;;;;;;;;;;15.30;99.90;;;13.92;94.72;101614.31;3520035;39;103208;-40
2021/08/12 01:33:30;;;;;;;;;;;15.30;99.90;;;13.86;94.74;101613.31;3519987;39;103717;-40
2021/08/12 01:36:00;;;;;;;;;;;15.20;99.90;;;13.83;94.83;101602.78;3519960;39;105018;-39
2021/08/12 01:38:30;;;;;;;;;;;15.20;99.90;;;13.79;94.90;101601.50;3520226;39;102356;-40
2021/08/12 01:40:59;;;;;;;;;;;15.20;99.90;;;13.79;95.43;101601.50;3518875;40;102346;-40
2021/08/12 01:43:29;;;;;;;;;;;15.20;99.90;;;13.76;95.25;101596.44;3519917;39;102836;-40
2021/08/12 01:46:05;;;;;;;;;;;15.10;99.90;;;13.72;95.46;101585.09;3519483;40;103997;-40
2021/08/12 01:48:33;;;;;;;;;;;15.10;99.90;;;13.68;95.16;101580.22;3518729;40;102543;-40
2021/08/12 01:51:04;;;;;;;;;;;15.00;99.90;;;13.65;95.34;101585.09;3518874;40;103206;-40
2021/08/12 01:53:33;;;;;;;;;;;15.00;99.90;;;13.60;95.29;101573.94;3519092;40;102492;-40
2021/08/12 01:56:01;;;;;;;;;;;15.00;99.90;;;13.57;95.22;101571.63;3518855;40;103254;-40
2021/08/12 01:58:31;;;;;;;;;;;15.00;99.90;;;13.56;94.84;101569.09;3518727;40;102774;-40
2021/08/12 02:01:00;;;;;;;;;;;14.90;99.90;;;13.55;94.83;101578.38;3518767;40;102346;-40
2021/08/12 02:03:29;;;;;;;;;;;14.90;99.90;;;13.52;94.85;101580.47;3518981;40;102582;-40
2021/08/12 02:05:59;;;;;;;;;;;14.90;99.90;;;13.46;95.19;101580.47;3518943;40;104247;-40
2021/08/12 02:08:27;;;;;;;;;;;14.90;99.90;;;13.44;94.91;101590.81;3518952;40;102564;-40
2021/08/12 02:10:55;;;;;;;;;;;14.80;99.90;;;13.42;94.89;101591.03;3518766;40;104353;-40
2021/08/12 02:13:27;;;;;;;;;;;14.80;99.90;;;13.41;94.79;101588.47;3519634;40;102644;-39
2021/08/12 02:15:55;;;;;;;;;;;14.80;99.90;;;13.40;95.12;101587.66;3518657;40;102503;-40
2021/08/12 02:18:23;;;;;;;;;;;14.80;99.90;;;13.42;95.35;101601.97;3519521;40;103642;-39
2021/08/12 02:21:00;;;;;;;;;;;14.80;99.90;;;13.46;95.81;101594.19;3518571;40;103155;-43
2021/08/12 02:23:34;;;;;;;;;;;14.80;99.90;;;13.48;96.12;101583.84;3519185;40;103068;-40
2021/08/12 02:26:08;;;;;;;;;;;14.80;99.90;;;13.49;96.27;101574.56;3519437;40;103264;-42
2021/08/12 02:28:41;;;;;;;;;;;14.80;99.90;;;13.50;96.43;101574.38;3518746;40;102265;-40
2021/08/12 02:31:11;;;;;;;;;;;14.80;99.90;;;13.51;96.47;101580.69;3646013;22;102635;-40
2021/08/12 02:33:39;;;;;;;;;;;14.90;99.90;;;13.50;96.34;101579.84;3510868;40;102195;-40
2021/08/12 02:36:08;;;;;;;;;;;14.80;99.90;;;13.49;96.40;101580.91;3519897;40;103969;-40
2021/08/12 02:38:42;;;;;;;;;;;14.80;99.90;;;13.50;96.28;101585.34;3520082;40;102694;-40
2021/08/12 02:41:14;;;;;;;;;;;14.80;99.90;;;13.50;96.45;101592.69;3516341;39;103677;-41
2021/08/12 02:43:43;;;;;;;;;;;14.90;99.90;;;13.50;96.26;101592.69;3529534;39;103647;-40
2021/08/12 02:46:16;;;;;;;;;;;14.80;99.90;;;13.48;96.50;101579.22;3528799;39;104161;-41
2021/08/12 02:48:44;;;;;;;;;;;14.80;99.90;;;13.51;96.90;101586.16;3529308;39;102296;-41
2021/08/12 02:51:13;;;;;;;;;;;14.80;99.90;;;13.49;97.15;101582.78;3529309;39;102356;-41
2021/08/12 02:53:41;;;;;;;;;;;14.80;99.90;;;13.45;97.34;101578.81;3520111;39;102252;-40
2021/08/12 02:56:12;;;;;;;;;;;14.80;99.90;;;13.51;97.66;101588.91;3520145;39;104252;-40
2021/08/12 02:58:41;;;;;;;;;;;14.90;99.90;;;13.51;97.81;101589.75;3521190;39;104751;-39
2021/08/12 03:01:11;;;;;;;;;;;14.90;99.90;;;13.52;98.02;101585.97;3530929;39;104194;-40
2021/08/12 03:03:42;;;;;;;;;;;14.90;99.90;;;13.55;98.39;101581.97;3521698;39;102827;-40
2021/08/12 03:06:15;;;;;;;;;;;14.90;99.90;;;13.54;98.39;101582.16;3521499;39;103785;-40
2021/08/12 03:08:47;;;;;;;;;;;14.90;99.90;;;13.53;98.30;101570.38;3521401;39;103080;-40
2021/08/12 03:11:17;;;;;;;;;;;14.90;99.90;;;13.55;98.47;101562.78;3530851;39;103053;-40
2021/08/12 03:13:46;;;;;;;;;;;14.90;99.90;;;13.52;98.71;101553.06;3530525;39;103639;-40
2021/08/12 03:16:14;;;;;;;;;;;14.90;99.90;;;13.57;98.75;101562.53;3530411;39;103496;-40
2021/08/12 03:18:41;;;;;;;;;;;14.90;99.90;;;13.56;98.71;101567.19;3521434;39;102929;-40
2021/08/12 03:21:13;;;;;;;;;;;14.90;99.90;;;13.55;98.63;101564.66;3521218;39;103279;-40
2021/08/12 03:23:42;;;;;;;;;;;14.90;99.90;;;13.53;98.42;101570.38;3530408;39;102099;-40
2021/08/12 03:26:10;;;;;;;;;;;14.90;99.90;;;13.48;98.38;101564.66;3521520;39;105160;-40
2021/08/12 03:28:38;;;;;;;;;;;14.90;99.90;;;13.48;98.32;101571.00;3530896;39;102180;-40
2021/08/12 03:31:06;;;;;;;;;;;14.90;99.90;;;13.46;98.23;101567.63;3530503;39;103246;-40
2021/08/12 03:33:34;;;;;;;;;;;14.80;99.90;;;13.44;98.18;101571.63;3521531;39;102851;-40
2021/08/12 03:36:02;;;;;;;;;;;14.80;99.90;;;13.41;98.15;101561.06;3530058;39;105152;-40
2021/08/12 03:38:29;;;;;;;;;;;14.80;99.90;;;13.40;98.11;101563.00;3521642;39;102192;-40
2021/08/12 03:40:56;;;;;;;;;;;14.80;99.90;;;13.37;98.20;101566.97;3521137;39;105681;-40
2021/08/12 03:43:24;;;;;;;;;;;14.70;99.90;;;13.36;98.15;101567.19;3521393;39;102345;-40
2021/08/12 03:45:52;;;;;;;;;;;14.70;99.90;;;13.28;97.96;101565.53;3530461;39;102290;-40
2021/08/12 03:48:19;;;;;;;;;;;14.70;99.90;;;13.28;97.72;101576.50;3529985;39;102450;-40
2021/08/12 03:50:46;;;;;;;;;;;14.70;99.90;;;13.26;97.68;101577.75;3530470;39;104039;-40
2021/08/12 03:53:14;;;;;;;;;;;14.60;99.90;;;13.24;97.64;101575.19;3530361;39;102100;-40
2021/08/12 03:55:41;;;;;;;;;;;14.60;99.90;;;13.22;97.49;101580.06;3521150;39;102400;-40
2021/08/12 03:58:08;;;;;;;;;;;14.60;99.90;;;13.22;97.47;101582.78;3530119;39;102403;-40
2021/08/12 04:00:36;;;;;;;;;;;14.60;99.90;;;13.20;97.44;101588.50;3530011;39;105201;-40
2021/08/12 04:03:04;;;;;;;;;;;14.60;99.90;;;13.19;97.35;101585.97;3530682;39;102701;-40
2021/08/12 04:05:33;;;;;;;;;;;14.60;99.90;;;13.17;97.48;101585.34;3520990;39;102326;-40
2021/08/12 04:08:01;;;;;;;;;;;14.60;99.90;;;13.15;97.18;101590.19;3521131;39;102464;-40
2021/08/12 04:10:28;;;;;;;;;;;14.60;99.90;;;13.13;97.20;101589.56;3530499;39;103075;-40
2021/08/12 04:12:56;;;;;;;;;;;14.60;99.90;;;13.12;97.08;101585.13;3521196;39;102325;-40
2021/08/12 04:15:23;;;;;;;;;;;14.50;99.90;;;13.09;97.27;101584.50;3530600;39;103102;-40
2021/08/12 04:17:50;;;;;;;;;;;14.50;99.90;;;13.07;97.05;101574.78;3530575;39;102430;-40
2021/08/12 04:20:18;;;;;;;;;;;14.50;99.90;;;13.04;96.89;101572.47;3521285;39;105701;-40
2021/08/12 04:22:45;;;;;;;;;;;14.50;99.90;;;13.07;96.97;101581.13;3521063;39;102335;-40
2021/08/12 04:27:19;;;;;;;;;;;14.50;99.90;;;13.13;97.14;101592.28;2576927;30;136388;-40
2021/08/12 04:29:47;;;;;;;;;;;14.50;99.90;;;13.14;97.61;101588.50;2573229;30;138099;-40
2021/08/12 04:32:15;;;;;;;;;;;14.50;99.90;;;13.12;97.76;101590.59;2572138;30;138512;-40
2021/08/12 04:34:43;;;;;;;;;;;14.50;99.90;;;13.13;97.44;101592.28;2572474;30;136888;-40
2021/08/12 04:37:10;;;;;;;;;;;14.50;99.90;;;13.11;97.54;101592.50;2573116;30;139923;-40
2021/08/12 04:39:38;;;;;;;;;;;14.50;99.90;;;13.11;97.48;101587.00;2573346;30;136962;-40
2021/08/12 04:42:06;;;;;;;;;;;14.50;99.90;;;13.12;97.85;101587.88;2573749;30;139949;-40
2021/08/12 04:44:34;;;;;;;;;;;14.50;99.90;;;13.11;97.73;101595.22;2574398;30;138122;-40
2021/08/12 04:47:01;;;;;;;;;;;14.50;99.90;;;13.09;97.46;101598.19;2572715;30;139979;-41
2021/08/12 04:49:30;;;;;;;;;;;14.50;99.90;;;13.11;97.55;101599.88;2573465;30;139390;-40
2021/08/12 04:51:57;;;;;;;;;;;14.50;99.90;;;13.13;97.78;101597.78;2572098;30;140617;-41
2021/08/12 04:54:25;;;;;;;;;;;14.50;99.90;;;13.13;97.56;101600.50;2568677;30;137292;-40
2021/08/12 04:56:53;;;;;;;;;;;14.50;99.90;;;13.12;97.70;101601.56;2573867;30;139703;-40
2021/08/12 04:59:21;;;;;;;;;;;14.50;99.90;;;13.12;97.77;101596.91;2573197;30;137131;-40
2021/08/12 05:01:53;;;;;;;;;;;14.50;99.90;;;13.13;97.69;101597.78;2573206;30;139704;-40
2021/08/12 05:04:21;;;;;;;;;;;14.50;99.90;;;13.15;97.20;101593.78;2569742;30;139210;-40
2021/08/12 05:06:49;;;;;;;;;;;14.50;99.90;;;13.19;97.35;101596.91;2573685;30;137275;-40
2021/08/12 05:09:16;;;;;;;;;;;14.50;99.90;;;13.24;97.70;101599.88;2572419;30;136959;-40
2021/08/12 05:11:44;;;;;;;;;;;14.50;99.90;;;13.29;97.67;101608.31;2572645;30;136966;-40
2021/08/12 05:14:12;;;;;;;;;;;14.60;99.90;;;13.34;97.75;101611.25;2573294;30;138499;-40
2021/08/12 05:16:39;;;;;;;;;;;14.60;99.90;;;13.40;97.80;101609.56;2572824;30;140248;-40
2021/08/12 05:19:06;;;;;;;;;;;14.70;99.90;;;13.47;98.12;101606.84;2576325;30;138960;-40
2021/08/12 05:21:34;;;;;;;;;;;14.70;99.90;;;13.55;98.18;101605.78;2572775;30;137404;-40
2021/08/12 05:24:02;;;;;;;;;;;14.80;99.90;;;13.65;98.29;101611.66;2573825;30;138974;-40
2021/08/12 05:26:29;;;;;;;;;;;14.90;99.90;;;13.77;98.51;101614.59;2574788;30;137177;-40
2021/08/12 05:28:57;;;;;;;;;;;15.00;99.90;;;13.85;98.44;101616.25;2573622;30;137639;-40
2021/08/12 05:31:25;;;;;;;;;;;15.10;99.90;;;13.97;98.18;101613.69;2573675;30;139559;-41
2021/08/12 05:33:52;;;;;;;;;;;15.10;99.90;;;14.06;98.15;101617.91;2570753;30;137453;-41
2021/08/12 05:36:20;;;;;;;;;;;15.20;99.90;;;14.10;98.10;101616.41;2572882;30;140697;-41
2021/08/12 05:38:47;;;;;;;;;;;15.30;99.90;;;14.21;98.45;101618.47;2570742;30;136888;-41
2021/08/12 05:41:14;;;;;;;;;;;15.40;99.90;;;14.26;98.16;101622.44;2568046;30;139698;-41
2021/08/12 05:43:42;;;;;;;;;;;15.50;99.90;;;14.29;98.19;101619.25;2569320;30;139778;-41
2021/08/12 05:46:09;;;;;;;;;;;15.50;99.90;;;14.32;98.27;101613.34;2570181;30;137392;-41
2021/08/12 05:48:37;;;;;;;;;;;15.60;99.90;;;14.36;97.98;101606.38;2570064;30;138370;-40
2021/08/12 05:51:05;;;;;;;;;;;15.60;99.90;;;14.43;98.28;101607.16;2570245;30;137855;-40
2021/08/12 05:53:32;;;;;;;;;;;15.70;99.90;;;14.61;98.83;101605.59;2569695;30;137745;-40
2021/08/12 05:56:02;;;;;;;;;;;15.80;99.90;;;14.86;99.18;101610.34;2566450;30;140343;-40
2021/08/12 05:58:33;;;;;;;;;;;15.90;99.90;;;15.13;99.50;101610.13;2566257;30;140154;-40
2021/08/12 06:01:01;;;;;;;;;;;16.10;99.90;;;15.42;99.36;101610.50;2571036;30;139514;-40
2021/08/12 06:03:29;;;;;;;;;;;16.40;99.90;;;15.72;99.73;101598.78;2569972;30;136936;-39
2021/08/12 06:05:58;;;;;;;;;;;16.60;99.90;;;15.98;98.98;101610.59;2567632;30;137636;-40
2021/08/12 06:08:28;;;;;;;;;;;16.80;99.90;;;16.23;99.16;101608.59;2568654;30;138478;-40
2021/08/12 06:10:56;;;;;;;;;;;17.10;99.90;;;16.45;98.47;101612.75;2567591;30;137554;-41
2021/08/12 06:13:26;;;;;;;;;;;17.30;99.90;;;16.66;97.33;101611.38;2569088;30;137173;-41
2021/08/12 06:15:54;;;;;;;;;;;17.50;99.90;;;16.88;96.97;101608.09;2568016;30;140230;-40
2021/08/12 06:18:23;;;;;;;;;;;17.70;99.90;;;17.02;95.02;101608.75;2567086;30;137163;-40
2021/08/12 06:20:50;;;;;;;;;;;17.80;99.90;;;17.20;94.64;101605.91;2569261;30;139871;-40
2021/08/12 06:23:18;;;;;;;;;;;18.00;99.90;;;17.40;93.53;101616.59;2570419;30;138593;-41
2021/08/12 06:25:45;;;;;;;;;;;18.20;99.90;;;17.61;93.56;101610.69;2570656;30;139413;-41
2021/08/12 06:28:13;;;;;;;;;;;18.40;99.90;;;17.89;93.31;101615.47;2567012;30;137715;-41
2021/08/12 06:30:41;;;;;;;;;;;18.60;99.90;;;18.06;91.69;101604.56;2569338;30;138608;-41
2021/08/12 06:33:10;;;;;;;;;;;18.80;99.90;;;18.20;90.65;101607.88;2570342;30;137578;-41
2021/08/12 06:35:38;;;;;;;;;;;18.90;99.90;;;18.26;89.55;101611.59;2568647;30;139627;-40
2021/08/12 06:38:07;;;;;;;;;;;19.10;99.90;;;18.24;89.53;101608.22;2569962;30;138525;-41
2021/08/12 06:40:35;;;;;;;;;;;19.10;99.90;;;18.23;89.13;101607.38;2566333;30;139984;-40
2021/08/12 06:43:02;;;;;;;;;;;19.20;99.90;;;18.21;89.58;101606.78;2566042;30;137626;-40
2021/08/12 06:45:45;;;;;;;;;;;19.20;99.90;;;18.26;90.55;101606.88;2570239;30;139669;-40
2021/08/12 06:48:13;;;;;;;;;;;19.20;99.90;;;18.28;89.22;101603.03;2568096;30;136953;-41
2021/08/12 06:50:41;;;;;;;;;;;19.30;99.90;;;18.35;89.92;101609.28;2568981;30;138451;-41
2021/08/12 06:53:09;;;;;;;;;;;19.30;99.90;;;18.42;89.70;101615.47;2570442;30;137041;-40
2021/08/12 06:55:38;;;;;;;;;;;19.40;99.90;;;18.48;89.84;101606.19;2569260;30;137353;-41
2021/08/12 06:58:05;;;;;;;;;;;19.40;99.90;;;18.42;87.51;101615.47;2567384;30;139911;-41
2021/08/12 07:00:32;;;;;;;;;;;19.40;99.90;;;18.44;87.99;101609.72;2569844;30;137067;-40
2021/08/12 07:03:00;;;;;;;;;;;19.40;99.90;;;18.51;88.84;101619.53;2569512;30;138969;-42
2021/08/12 07:05:28;;;;;;;;;;;19.50;99.90;;;18.62;87.86;101626.09;2569192;30;139779;-41
2021/08/12 07:07:55;;;;;;;;;;;19.60;99.90;;;18.67;88.07;101625.34;2568276;30;139525;-42
2021/08/12 07:10:23;;;;;;;;;;;19.60;99.90;;;18.69;88.09;101625.94;2570836;30;141035;-41
2021/08/12 07:12:51;;;;;;;;;;;19.70;99.90;;;18.78;88.19;101631.91;2570162;30;138820;-40
2021/08/12 07:15:18;;;;;;;;;;;19.70;99.90;;;18.76;85.29;101637.66;2569746;30;139594;-40
2021/08/12 07:17:46;;;;;;;;;;;19.70;99.90;;;18.77;85.92;101636.59;2569048;30;139029;-41
2021/08/12 07:20:17;;;;;;;;;;;19.70;99.90;;;18.84;85.54;101628.16;2568660;30;139704;-41
2021/08/12 07:22:46;;;;;;;;;;;19.80;99.90;;;18.89;85.54;101633.75;2569379;30;137702;-40
2021/08/12 07:25:15;;;;;;;;;;;19.80;99.90;;;18.93;85.39;101626.63;2566493;30;138484;-40
2021/08/12 07:27:45;;;;;;;;;;;19.90;99.90;;;18.92;85.48;101624.13;2569036;30;138753;-41
2021/08/12 07:30:13;;;;;;;;;;;19.80;99.90;;;18.92;84.84;101624.97;2567456;30;137130;-41
2021/08/12 07:32:40;;;;;;;;;;;19.90;99.90;;;18.94;85.00;101633.03;2569440;30;137882;-41
2021/08/12 07:35:08;;;;;;;;;;;19.90;99.90;;;19.05;85.58;101626.59;2567841;30;138190;-40
2021/08/12 07:37:38;;;;;;;;;;;20.00;99.90;;;19.14;84.06;101623.44;2569618;30;137019;-41
2021/08/12 07:40:05;;;;;;;;;;;20.10;99.90;;;19.29;83.59;101622.84;2570253;30;138134;-41
2021/08/12 07:42:33;;;;;;;;;;;20.10;99.90;;;19.50;82.84;101619.31;2568879;30;138833;-40
2021/08/12 07:45:03;;;;;;;;;;;20.30;99.90;;;19.55;79.41;101633.22;2567487;30;140590;-41
2021/08/12 07:47:32;;;;;;;;;;;20.40;99.90;;;19.81;81.03;101625.28;2569233;30;139349;-40
2021/08/12 07:50:00;;;;;;;;;;;20.50;99.90;;;20.21;80.61;101630.78;2568949;30;140116;-41
2021/08/12 07:52:27;;;;;;;;;;;20.80;99.90;;;20.50;78.36;101630.56;2570069;30;137224;-41
2021/08/12 07:54:55;;;;;;;;;;;21.10;99.90;;;20.78;76.90;101629.50;2567870;30;137982;-40
2021/08/12 07:57:22;;;;;;;;;;;21.40;99.90;;;20.85;73.28;101626.56;2569530;30;137892;-41
2021/08/12 07:59:50;;;;;;;;;;;21.50;99.90;;;20.82;75.04;101633.44;2568635;30;137179;-40
2021/08/12 08:02:17;;;;;;;;;;;21.50;99.90;;;20.74;78.09;101628.34;2569978;30;137864;-40
2021/08/12 08:04:46;;;;;;;;;;;21.50;99.90;;;20.60;75.25;101624.31;2569292;30;138428;-38
2021/08/12 08:07:14;;;;;;;;;;;21.60;99.90;;;20.57;77.29;101630.38;2571247;30;136844;-38
2021/08/12 08:09:41;;;;;;;;;;;21.50;99.90;;;20.47;76.25;101625.56;2566496;30;137764;-41
2021/08/12 08:12:09;;;;;;;;;;;21.40;99.90;;;20.45;77.45;101623.06;2568297;30;137057;-41
2021/08/12 08:14:36;;;;;;;;;;;21.40;99.90;;;20.41;77.08;101635.75;2569221;30;136963;-39
2021/08/12 08:17:04;;;;;;;;;;;21.40;99.90;;;20.44;76.56;101626.94;2569724;30;136758;-39
2021/08/12 08:19:31;;;;;;;;;;;21.40;99.90;;;20.67;76.74;101634.09;2568283;30;138259;-40
2021/08/12 08:21:59;;;;;;;;;;;21.40;99.90;;;20.91;76.49;101631.03;2567905;30;137756;-41
2021/08/12 08:24:28;;;;;;;;;;;21.60;99.90;;;;;;2569186;30;138431;-41
2021/08/12 08:26:55;;;;;;;;;;;21.70;99.90;;;21.16;74.03;101643.47;2568200;30;137334;-40
2021/08/12 08:29:22;;;;;;;;;;;21.80;99.90;;;21.45;73.45;101642.28;2568434;30;138202;-40
2021/08/12 08:31:50;;;;;;;;;;;22.00;99.90;;;21.63;71.39;101644.63;2581311;30;138050;-43
2021/08/12 08:34:17;;;;;;;;;;;22.20;99.90;;;21.89;73.25;101644.00;2568349;30;136966;-40
2021/08/12 08:36:45;;;;;;;;;;;;;;;22.11;70.88;101639.09;2565122;30;138341;-40
2021/08/12 08:39:12;;;;;;;;;;;22.60;99.90;;;22.21;67.90;101641.06;2568011;30;139064;-40
2021/08/12 08:41:40;;;;;;;;;;;22.70;99.90;;;22.31;67.11;101651.41;2565276;30;137067;-40
2021/08/12 08:44:08;;;;;;;;;;;22.90;99.90;;;22.38;67.85;101648.38;2568582;30;138552;-40
2021/08/12 08:46:37;;;;;;;;;;;23.00;99.90;;;22.52;68.14;101651.50;2568329;30;136847;-40
2021/08/12 08:49:07;;;;;;;;;;;23.10;99.90;;;22.53;66.59;101654.00;2568125;30;139084;-40
2021/08/12 08:51:36;;;;;;;;;;;23.10;99.90;;;22.68;68.21;101649.59;2568282;30;137009;-41
2021/08/12 08:54:04;;;;;;;;;;;23.30;99.90;;;22.88;66.62;101654.34;2567090;30;137649;-40
2021/08/12 08:56:32;;;;;;;;;;;23.50;99.90;;;22.94;63.31;101652.41;2567248;30;137018;-40
2021/08/12 08:59:00;;;;;;;;;;;23.50;99.90;;;23.09;65.00;101648.81;2567459;30;138318;-40
2021/08/12 09:01:27;;;;;;;;;;;23.60;99.90;;;23.17;65.01;101650.22;2566601;30;137265;-44
2021/08/12 09:03:55;;;;;;;;;;;23.70;99.90;;;23.18;63.05;101649.09;2566597;30;137897;-37
2021/08/12 09:06:22;;;;;;;;;;;23.80;99.90;;;23.31;64.88;101650.50;2568510;30;137255;-40
2021/08/12 09:08:50;;;;;;;;;;;23.90;99.90;;;23.35;63.65;101641.34;2568935;30;137256;-42
2021/08/12 09:11:17;;;;;;;;;;;24.00;99.90;;;23.27;62.45;101647.44;2566513;30;136712;-39
2021/08/12 09:13:45;;;;;;;;;;;23.90;99.90;;;23.33;62.66;101648.28;2568881;30;137996;-37
2021/08/12 09:16:36;;;;;;;;;;;24.00;99.90;;;23.21;62.67;101640.19;2567708;30;137249;-40
2021/08/12 09:19:23;;;;;;;;;;;23.90;99.90;;;23.22;61.83;101641.84;2567619;30;137969;-40
2021/08/12 09:21:57;;;;;;;;;;;23.90;99.90;;;23.36;62.46;101654.13;2568991;30;137093;-40
2021/08/12 09:24:25;;;;;;;;;;;24.00;99.90;;;23.39;62.33;101653.56;2569765;30;138229;-40
2021/08/12 09:26:53;;;;;;;;;;;24.10;99.90;;;23.51;61.65;101656.06;2568324;30;137914;-40
2021/08/12 09:29:31;;;;;;;;;;;24.20;99.90;;;23.63;61.25;101655.78;2569061;30;137317;-39
2021/08/12 09:32:04;;;;;;;;;;;24.30;99.90;;;23.63;58.42;101652.13;2569408;30;137463;-41
2021/08/12 09:34:39;;;;;;;;;;;;;;;23.88;60.06;101648.47;2569340;30;138220;-40
2021/08/12 09:37:07;;;;;;;;;;;;;;;24.09;60.53;101653.97;2568531;30;138122;-39
2021/08/12 09:39:35;;;;;;;;;;;;;;;24.25;60.42;101644.44;2567704;30;138363;-40
2021/08/12 09:42:05;;;;;;;;;;;;;;;24.26;58.63;101639.69;2568110;30;137222;-39
2021/08/12 09:44:51;;;;;;;;;;;;;;;24.22;59.47;101639.44;2568648;30;139236;-40
2021/08/12 09:47:19;;;;;;;;;;;;;;;24.30;59.41;101634.38;2567834;30;137237;-40
2021/08/12 09:49:48;;;;;;;;;;;;;;;24.35;59.55;101629.63;2568861;30;137342;-40
2021/08/12 09:52:18;;;;;;;;;;;;;;;24.41;58.07;101628.47;2568476;30;137038;-40
2021/08/12 09:54:46;;;;;;;;;;;;;;;24.49;57.19;101629.84;2569841;30;137244;-42
2021/08/12 09:57:19;;;;;;;;;;;;;;;24.51;56.07;101638.75;2569025;30;137922;-42
2021/08/12 09:59:55;;;;;;;;;;;;;;;24.56;57.78;101635.91;2569281;30;137078;-37
2021/08/12 10:02:29;;;;;;;;;;;;;;;24.51;57.85;101641.53;2568479;30;136909;-40
2021/08/12 10:05:05;;;;;;;;;;;;;;;24.38;57.18;101639.34;2568373;30;137150;-40
2021/08/12 10:07:53;;;;;;;;;;;;;;;24.30;56.19;101642.75;2567102;30;137182;-40
2021/08/12 10:10:26;;;;;;;;;;;;;;;24.29;60.34;101639.16;2568586;30;137844;-40
2021/08/12 10:12:54;;;;;;;;;;;;;;;24.32;57.47;101640.50;2569178;30;137101;-40
2021/08/12 10:15:25;;;;;;;;;;;24.30;99.90;;;24.32;56.04;101634.94;2569827;30;137120;-40
2021/08/12 10:17:54;;;;;;;;;;;25.10;99.90;;;24.36;55.34;101641.59;2568887;30;138086;-40
2021/08/12 10:20:24;;;;;;;;;;;25.10;99.90;;;24.46;54.92;101635.13;2567175;30;138475;-40
2021/08/12 10:22:53;;;;;;;;;;;25.10;99.90;;;24.53;56.31;101635.66;2568214;30;137277;-40
2021/08/12 10:25:22;;;;;;;;;;;25.20;99.90;;;24.69;57.27;101634.44;2569059;30;138633;-40
2021/08/12 10:28:09;;;;;;;;;;;;;;;24.84;54.17;101636.31;2569536;30;137318;-40
2021/08/12 10:30:37;;;;;;;;;;;;;;;24.97;52.69;101639.59;2568943;30;138583;-40
2021/08/12 10:33:06;;;;;;;;;;;;;;;24.93;54.76;101639.34;2569466;30;137213;-40
2021/08/12 10:35:35;;;;;;;;;;;;;;;24.87;53.78;101646.06;2568354;30;138193;-41
2021/08/12 10:38:03;;;;;;;;;;;;;;;24.80;52.74;101642.75;2568312;30;136626;-40
2021/08/12 10:40:34;;;;;;;;;;;25.30;99.90;;;24.59;53.85;101625.31;2568843;30;138556;-40
2021/08/12 10:43:04;;;;;;;;;;;25.50;99.90;;;24.59;54.44;101616.94;2569362;30;136993;-40
2021/08/12 10:45:31;;;;;;;;;;;25.40;99.90;;;24.56;52.65;101623.94;2568861;30;138529;-40
2021/08/12 10:48:03;;;;;;;;;;;25.30;99.90;;;24.52;55.79;101618.09;2568869;30;138196;-40
2021/08/12 10:50:36;;;;;;;;;;;25.30;99.90;;;24.53;53.94;101616.97;2568592;30;137779;-40
2021/08/12 10:53:07;;;;;;;;;;;25.30;99.90;;;24.54;53.81;101621.44;2567650;30;137151;-41
2021/08/12 10:55:38;;;;;;;;;;;25.30;99.90;;;24.64;54.93;101619.69;2567459;30;137361;-40
2021/08/12 10:58:25;;;;;;;;;;;25.40;99.90;;;24.67;52.94;101619.94;2568479;30;137370;-40
2021/08/12 11:00:58;;;;;;;;;;;25.40;99.90;;;24.75;52.97;101626.06;2568101;30;138346;-40
2021/08/12 11:03:32;;;;;;;;;;;25.40;99.90;;;24.80;53.90;101612.91;2569790;30;137182;-40
2021/08/12 11:06:08;;;;;;;;;;;25.50;99.90;;;24.91;53.71;101619.25;2568247;30;138624;-40
2021/08/12 11:08:45;;;;;;;;;;;;;;;25.02;54.74;101614.44;2570260;30;137000;-40
2021/08/12 11:11:13;;;;;;;;;;;;;;;25.03;55.89;101618.03;2568180;30;138585;-40
2021/08/12 11:13:41;;;;;;;;;;;;;;;25.10;54.15;101615.75;2569012;30;137018;-37
2021/08/12 11:16:09;;;;;;;;;;;;;;;25.20;56.06;101617.63;2570386;30;137093;-41
2021/08/12 11:18:43;;;;;;;;;;;;;;;25.26;51.46;101622.03;2566686;30;137146;-40
2021/08/12 11:21:29;;;;;;;;;;;;;;;25.32;51.75;101618.06;2568030;30;138518;-40